sensor_id;sensor_type;location;lat;lon;timestamp;pressure;altitude;pressure_sealevel;temperature;humidity
20115;BME280;10218;42.874;25.320;2023-03-04T00:01:32;97265.16;;;7.98;100.00
20115;BME280;10218;42.874;25.320;2023-03-04T00:03:59;97270.66;;;7.61;100.00
20115;BME280;10218;42.874;25.320;2023-03-04T00:06:26;97258.03;;;7.46;100.00
20115;BME280;10218;42.874;25.320;2023-03-04T00:08:53;97268.56;;;7.38;100.00
20115;BME280;10218;42.874;25.320;2023-03-04T00:11:24;97268.75;;;7.36;100.00
20115;BME280;10218;42.874;25.320;2023-03-04T00:13:51;97253.62;;;7.72;100.00
20115;BME280;10218;42.874;25.320;2023-03-04T00:16:18;97248.72;;;7.77;100.00
20115;BME280;10218;42.874;25.320;2023-03-04T00:18:45;97251.34;;;7.42;100.00
20115;BME280;10218;42.874;25.320;2023-03-04T00:21:12;97246.44;;;7.64;100.00
20115;BME280;10218;42.874;25.320;2023-03-04T00:23:39;97249.59;;;7.32;100.00
20115;BME280;10218;42.874;25.320;2023-03-04T00:26:07;97248.78;;;7.05;100.00
20115;BME280;10218;42.874;25.320;2023-03-04T00:28:35;97242.13;;;7.18;100.00
20115;BME280;10218;42.874;25.320;2023-03-04T00:31:02;97242.56;;;7.41;100.00
20115;BME280;10218;42.874;25.320;2023-03-04T00:33:29;97240.63;;;7.34;100.00
20115;BME280;10218;42.874;25.320;2023-03-04T00:35:56;97240.75;;;7.14;100.00
20115;BME280;10218;42.874;25.320;2023-03-04T00:38:23;97239.50;;;7.54;100.00
20115;BME280;10218;42.874;25.320;2023-03-04T00:40:51;97244.06;;;7.44;100.00
20115;BME280;10218;42.874;25.320;2023-03-04T00:43:19;97241.16;;;6.92;100.00
20115;BME280;10218;42.874;25.320;2023-03-04T00:45:46;97234.78;;;6.85;100.00
20115;BME280;10218;42.874;25.320;2023-03-04T00:48:13;97243.03;;;7.09;100.00
20115;BME280;10218;42.874;25.320;2023-03-04T00:50:42;97244.00;;;7.08;100.00
20115;BME280;10218;42.874;25.320;2023-03-04T00:53:10;97242.72;;;7.12;100.00
20115;BME280;10218;42.874;25.320;2023-03-04T00:55:37;97250.53;;;7.14;100.00
20115;BME280;10218;42.874;25.320;2023-03-04T00:58:04;97239.06;;;7.13;100.00
20115;BME280;10218;42.874;25.320;2023-03-04T01:00:31;97250.88;;;7.01;100.00
20115;BME280;10218;42.874;25.320;2023-03-04T01:02:58;97251.25;;;7.06;100.00
20115;BME280;10218;42.874;25.320;2023-03-04T01:05:25;97252.62;;;7.38;100.00
20115;BME280;10218;42.874;25.320;2023-03-04T01:07:52;97246.78;;;7.34;100.00
20115;BME280;10218;42.874;25.320;2023-03-04T01:10:20;97241.63;;;7.50;100.00
20115;BME280;10218;42.874;25.320;2023-03-04T01:12:47;97242.00;;;7.73;100.00
20115;BME280;10218;42.874;25.320;2023-03-04T01:15:14;97240.00;;;7.93;100.00
20115;BME280;10218;42.874;25.320;2023-03-04T01:17:41;97242.16;;;7.89;100.00
20115;BME280;10218;42.874;25.320;2023-03-04T01:20:09;97240.88;;;7.58;100.00
20115;BME280;10218;42.874;25.320;2023-03-04T01:22:36;97229.63;;;7.64;100.00
20115;BME280;10218;42.874;25.320;2023-03-04T01:25:05;97241.13;;;7.82;100.00
20115;BME280;10218;42.874;25.320;2023-03-04T01:27:32;97239.28;;;7.65;100.00
20115;BME280;10218;42.874;25.320;2023-03-04T01:29:59;97239.12;;;7.49;100.00
20115;BME280;10218;42.874;25.320;2023-03-04T01:32:28;97231.75;;;7.25;100.00
20115;BME280;10218;42.874;25.320;2023-03-04T01:34:55;97238.81;;;7.34;100.00
20115;BME280;10218;42.874;25.320;2023-03-04T01:37:22;97242.00;;;7.38;100.00
20115;BME280;10218;42.874;25.320;2023-03-04T01:39:49;97234.41;;;7.78;100.00
20115;BME280;10218;42.874;25.320;2023-03-04T01:42:21;97229.31;;;7.67;100.00
20115;BME280;10218;42.874;25.320;2023-03-04T01:44:50;97234.53;;;7.94;100.00
20115;BME280;10218;42.874;25.320;2023-03-04T01:47:18;97234.41;;;7.96;100.00
20115;BME280;10218;42.874;25.320;2023-03-04T01:49:52;97228.81;;;7.46;100.00
20115;BME280;10218;42.874;25.320;2023-03-04T01:52:20;97232.22;;;7.73;100.00
20115;BME280;10218;42.874;25.320;2023-03-04T01:54:48;97239.44;;;7.81;100.00
20115;BME280;10218;42.874;25.320;2023-03-04T01:57:21;97230.78;;;7.61;100.00
20115;BME280;10218;42.874;25.320;2023-03-04T02:03:08;97238.28;;;7.84;100.00
20115;BME280;10218;42.874;25.320;2023-03-04T02:05:40;97239.41;;;7.28;100.00
20115;BME280;10218;42.874;25.320;2023-03-04T02:08:09;97235.47;;;7.50;100.00
20115;BME280;10218;42.874;25.320;2023-03-04T02:10:37;97232.66;;;7.06;100.00
20115;BME280;10218;42.874;25.320;2023-03-04T02:13:05;97234.13;;;7.46;100.00
20115;BME280;10218;42.874;25.320;2023-03-04T02:15:32;97233.81;;;7.66;100.00
20115;BME280;10218;42.874;25.320;2023-03-04T02:18:00;97236.84;;;7.54;100.00
20115;BME280;10218;42.874;25.320;2023-03-04T02:25:35;97229.09;;;7.43;100.00
20115;BME280;10218;42.874;25.320;2023-03-04T02:28:04;97223.97;;;7.31;100.00
20115;BME280;10218;42.874;25.320;2023-03-04T02:30:31;97229.28;;;7.31;100.00
20115;BME280;10218;42.874;25.320;2023-03-04T02:32:58;97226.81;;;7.48;100.00
20115;BME280;10218;42.874;25.320;2023-03-04T02:35:25;97215.50;;;7.46;100.00
20115;BME280;10218;42.874;25.320;2023-03-04T02:37:52;97227.72;;;7.74;100.00
20115;BME280;10218;42.874;25.320;2023-03-04T02:40:27;97219.44;;;7.24;100.00
20115;BME280;10218;42.874;25.320;2023-03-04T02:42:58;97227.09;;;7.27;100.00
20115;BME280;10218;42.874;25.320;2023-03-04T02:48:04;97231.91;;;7.59;100.00
20115;BME280;10218;42.874;25.320;2023-03-04T02:50:40;97236.47;;;7.49;100.00
20115;BME280;10218;42.874;25.320;2023-03-04T02:53:08;97234.53;;;7.94;100.00
20115;BME280;10218;42.874;25.320;2023-03-04T02:55:35;97224.84;;;7.50;100.00
20115;BME280;10218;42.874;25.320;2023-03-04T02:58:02;97223.50;;;7.46;100.00
20115;BME280;10218;42.874;25.320;2023-03-04T03:00:30;97225.53;;;7.69;100.00
20115;BME280;10218;42.874;25.320;2023-03-04T03:02:57;97222.78;;;7.79;100.00
20115;BME280;10218;42.874;25.320;2023-03-04T03:05:26;97225.22;;;7.72;100.00
20115;BME280;10218;42.874;25.320;2023-03-04T03:07:54;97222.47;;;8.00;100.00
20115;BME280;10218;42.874;25.320;2023-03-04T03:10:21;97216.72;;;7.69;100.00
20115;BME280;10218;42.874;25.320;2023-03-04T03:12:48;97225.53;;;7.34;100.00
20115;BME280;10218;42.874;25.320;2023-03-04T03:15:16;97204.19;;;7.26;100.00
20115;BME280;10218;42.874;25.320;2023-03-04T03:17:43;97227.13;;;7.45;100.00
20115;BME280;10218;42.874;25.320;2023-03-04T03:20:13;97227.88;;;7.90;100.00
20115;BME280;10218;42.874;25.320;2023-03-04T03:22:41;97215.47;;;7.99;100.00
20115;BME280;10218;42.874;25.320;2023-03-04T03:25:10;97216.81;;;7.77;100.00
20115;BME280;10218;42.874;25.320;2023-03-04T03:27:38;97219.81;;;7.47;100.00
20115;BME280;10218;42.874;25.320;2023-03-04T03:30:06;97202.28;;;7.54;100.00
20115;BME280;10218;42.874;25.320;2023-03-04T03:32:34;97211.94;;;7.55;100.00
20115;BME280;10218;42.874;25.320;2023-03-04T03:35:01;97218.91;;;7.73;100.00
20115;BME280;10218;42.874;25.320;2023-03-04T03:37:29;97220.59;;;7.92;100.00
20115;BME280;10218;42.874;25.320;2023-03-04T03:39:56;97220.13;;;7.79;100.00
20115;BME280;10218;42.874;25.320;2023-03-04T03:42:23;97216.94;;;7.76;100.00
20115;BME280;10218;42.874;25.320;2023-03-04T03:44:50;97214.22;;;7.50;100.00
20115;BME280;10218;42.874;25.320;2023-03-04T03:47:17;97218.37;;;7.52;100.00
20115;BME280;10218;42.874;25.320;2023-03-04T03:49:44;97214.53;;;7.82;100.00
20115;BME280;10218;42.874;25.320;2023-03-04T03:52:11;97224.00;;;7.67;100.00
20115;BME280;10218;42.874;25.320;2023-03-04T03:54:38;97216.91;;;7.93;100.00
20115;BME280;10218;42.874;25.320;2023-03-04T03:57:08;97225.50;;;7.52;100.00
20115;BME280;10218;42.874;25.320;2023-03-04T03:59:35;97229.94;;;7.61;100.00
20115;BME280;10218;42.874;25.320;2023-03-04T04:02:02;97224.31;;;7.46;100.00
20115;BME280;10218;42.874;25.320;2023-03-04T04:04:29;97225.38;;;7.53;100.00
20115;BME280;10218;42.874;25.320;2023-03-04T04:06:56;97222.34;;;7.66;100.00
20115;BME280;10218;42.874;25.320;2023-03-04T04:09:23;97232.25;;;7.99;100.00
20115;BME280;10218;42.874;25.320;2023-03-04T04:11:51;97228.78;;;7.63;100.00
20115;BME280;10218;42.874;25.320;2023-03-04T04:14:18;97230.12;;;7.32;100.00
20115;BME280;10218;42.874;25.320;2023-03-04T04:16:45;97233.97;;;7.02;100.00
20115;BME280;10218;42.874;25.320;2023-03-04T04:19:16;97233.56;;;7.42;100.00
20115;BME280;10218;42.874;25.320;2023-03-04T04:21:44;97240.06;;;8.18;100.00
20115;BME280;10218;42.874;25.320;2023-03-04T04:24:11;97230.25;;;8.37;100.00
20115;BME280;10218;42.874;25.320;2023-03-04T04:26:39;97226.37;;;8.31;100.00
20115;BME280;10218;42.874;25.320;2023-03-04T04:29:07;97219.56;;;7.93;100.00
20115;BME280;10218;42.874;25.320;2023-03-04T04:31:34;97218.53;;;7.68;100.00
20115;BME280;10218;42.874;25.320;2023-03-04T04:34:02;97217.09;;;7.39;100.00
20115;BME280;10218;42.874;25.320;2023-03-04T04:36:29;97205.63;;;7.56;100.00
20115;BME280;10218;42.874;25.320;2023-03-04T04:38:56;97217.22;;;7.19;100.00
20115;BME280;10218;42.874;25.320;2023-03-04T04:41:26;97219.06;;;7.72;100.00
20115;BME280;10218;42.874;25.320;2023-03-04T04:43:54;97211.41;;;7.51;100.00
20115;BME280;10218;42.874;25.320;2023-03-04T04:46:21;97210.25;;;7.54;100.00
20115;BME280;10218;42.874;25.320;2023-03-04T04:48:49;97215.34;;;7.47;100.00
20115;BME280;10218;42.874;25.320;2023-03-04T04:51:16;97221.81;;;7.45;100.00
20115;BME280;10218;42.874;25.320;2023-03-04T04:53:43;97227.78;;;7.29;100.00
20115;BME280;10218;42.874;25.320;2023-03-04T04:56:17;97225.84;;;7.49;100.00
20115;BME280;10218;42.874;25.320;2023-03-04T04:58:44;97220.38;;;7.50;100.00
20115;BME280;10218;42.874;25.320;2023-03-04T05:01:12;97236.28;;;7.32;100.00
20115;BME280;10218;42.874;25.320;2023-03-04T05:03:40;97240.69;;;7.24;100.00
20115;BME280;10218;42.874;25.320;2023-03-04T05:06:08;97244.06;;;7.26;100.00
20115;BME280;10218;42.874;25.320;2023-03-04T05:08:36;97236.03;;;7.08;100.00
20115;BME280;10218;42.874;25.320;2023-03-04T05:11:06;97239.38;;;7.10;100.00
20115;BME280;10218;42.874;25.320;2023-03-04T05:13:34;97243.66;;;7.39;100.00
20115;BME280;10218;42.874;25.320;2023-03-04T05:16:02;97226.22;;;7.54;100.00
20115;BME280;10218;42.874;25.320;2023-03-04T05:18:29;97240.97;;;7.66;100.00
20115;BME280;10218;42.874;25.320;2023-03-04T05:20:58;97244.75;;;7.81;100.00
20115;BME280;10218;42.874;25.320;2023-03-04T05:23:32;97250.91;;;7.46;100.00
20115;BME280;10218;42.874;25.320;2023-03-04T05:25:59;97245.88;;;7.43;100.00
20115;BME280;10218;42.874;25.320;2023-03-04T05:28:27;97255.13;;;7.57;100.00
20115;BME280;10218;42.874;25.320;2023-03-04T05:30:54;97251.19;;;7.79;100.00
20115;BME280;10218;42.874;25.320;2023-03-04T05:33:21;97254.19;;;7.76;100.00
20115;BME280;10218;42.874;25.320;2023-03-04T05:35:49;97262.91;;;8.29;100.00
20115;BME280;10218;42.874;25.320;2023-03-04T05:38:18;97266.13;;;7.71;100.00
20115;BME280;10218;42.874;25.320;2023-03-04T05:40:46;97259.34;;;7.77;100.00
20115;BME280;10218;42.874;25.320;2023-03-04T05:43:14;97260.41;;;7.84;100.00
20115;BME280;10218;42.874;25.320;2023-03-04T05:45:41;97262.13;;;7.93;100.00
20115;BME280;10218;42.874;25.320;2023-03-04T05:48:09;97256.06;;;8.01;100.00
20115;BME280;10218;42.874;25.320;2023-03-04T05:50:40;97247.09;;;8.02;100.00
20115;BME280;10218;42.874;25.320;2023-03-04T05:53:06;97255.69;;;7.96;100.00
20115;BME280;10218;42.874;25.320;2023-03-04T05:55:33;97252.34;;;7.41;100.00
20115;BME280;10218;42.874;25.320;2023-03-04T05:58:01;97259.59;;;7.21;100.00
20115;BME280;10218;42.874;25.320;2023-03-04T06:00:28;97261.78;;;7.70;100.00
20115;BME280;10218;42.874;25.320;2023-03-04T06:02:55;97259.69;;;8.18;100.00
20115;BME280;10218;42.874;25.320;2023-03-04T06:05:22;97260.31;;;7.94;100.00
20115;BME280;10218;42.874;25.320;2023-03-04T06:07:49;97255.97;;;7.93;100.00
20115;BME280;10218;42.874;25.320;2023-03-04T06:10:16;97257.87;;;7.83;100.00
20115;BME280;10218;42.874;25.320;2023-03-04T06:12:44;97266.78;;;7.73;100.00
20115;BME280;10218;42.874;25.320;2023-03-04T06:15:11;97263.06;;;7.84;100.00
20115;BME280;10218;42.874;25.320;2023-03-04T06:17:40;97271.03;;;7.84;100.00
20115;BME280;10218;42.874;25.320;2023-03-04T06:20:09;97267.06;;;7.88;100.00
20115;BME280;10218;42.874;25.320;2023-03-04T06:22:36;97263.50;;;7.62;100.00
20115;BME280;10218;42.874;25.320;2023-03-04T06:25:03;97272.97;;;7.47;100.00
20115;BME280;10218;42.874;25.320;2023-03-04T06:27:31;97269.28;;;7.12;100.00
20115;BME280;10218;42.874;25.320;2023-03-04T06:29:58;97275.38;;;7.22;100.00
20115;BME280;10218;42.874;25.320;2023-03-04T06:32:25;97263.34;;;7.46;100.00
20115;BME280;10218;42.874;25.320;2023-03-04T06:34:52;97272.50;;;7.96;100.00
20115;BME280;10218;42.874;25.320;2023-03-04T06:37:20;97274.00;;;7.99;100.00
20115;BME280;10218;42.874;25.320;2023-03-04T06:39:47;97269.59;;;8.07;100.00
20115;BME280;10218;42.874;25.320;2023-03-04T06:42:14;97271.00;;;8.20;100.00
20115;BME280;10218;42.874;25.320;2023-03-04T06:44:41;97273.00;;;8.95;100.00
20115;BME280;10218;42.874;25.320;2023-03-04T06:47:08;97266.16;;;8.33;100.00
20115;BME280;10218;42.874;25.320;2023-03-04T06:49:35;97268.72;;;8.68;100.00
20115;BME280;10218;42.874;25.320;2023-03-04T06:52:02;97263.19;;;8.36;100.00
20115;BME280;10218;42.874;25.320;2023-03-04T06:54:30;97267.69;;;8.43;100.00
20115;BME280;10218;42.874;25.320;2023-03-04T06:56:56;97263.03;;;8.20;100.00
20115;BME280;10218;42.874;25.320;2023-03-04T06:59:23;97258.13;;;7.89;100.00
20115;BME280;10218;42.874;25.320;2023-03-04T07:01:51;97271.00;;;8.20;100.00
20115;BME280;10218;42.874;25.320;2023-03-04T07:04:18;97262.19;;;8.19;100.00
20115;BME280;10218;42.874;25.320;2023-03-04T07:06:45;97264.66;;;8.90;100.00
20115;BME280;10218;42.874;25.320;2023-03-04T07:09:12;97268.44;;;8.79;100.00
20115;BME280;10218;42.874;25.320;2023-03-04T07:11:39;97269.09;;;8.73;100.00
20115;BME280;10218;42.874;25.320;2023-03-04T07:14:06;97272.37;;;8.67;100.00
20115;BME280;10218;42.874;25.320;2023-03-04T07:16:34;97266.06;;;8.42;100.00
20115;BME280;10218;42.874;25.320;2023-03-04T07:19:01;97270.56;;;8.06;100.00
20115;BME280;10218;42.874;25.320;2023-03-04T07:21:28;97269.94;;;8.48;100.00
20115;BME280;10218;42.874;25.320;2023-03-04T07:23:55;97277.38;;;9.04;100.00
20115;BME280;10218;42.874;25.320;2023-03-04T07:26:22;97271.13;;;9.21;100.00
20115;BME280;10218;42.874;25.320;2023-03-04T07:28:49;97267.25;;;9.08;100.00
20115;BME280;10218;42.874;25.320;2023-03-04T07:31:23;97260.50;;;8.62;100.00
20115;BME280;10218;42.874;25.320;2023-03-04T07:33:50;97262.22;;;9.05;100.00
20115;BME280;10218;42.874;25.320;2023-03-04T07:36:17;97252.53;;;9.37;100.00
20115;BME280;10218;42.874;25.320;2023-03-04T07:38:47;97255.63;;;10.32;100.00
20115;BME280;10218;42.874;25.320;2023-03-04T07:41:15;97240.09;;;10.11;100.00
20115;BME280;10218;42.874;25.320;2023-03-04T07:43:43;97240.44;;;10.08;100.00
20115;BME280;10218;42.874;25.320;2023-03-04T07:46:10;97229.94;;;10.22;100.00
20115;BME280;10218;42.874;25.320;2023-03-04T07:48:37;97234.78;;;10.43;100.00
20115;BME280;10218;42.874;25.320;2023-03-04T07:51:05;97235.91;;;9.68;100.00
20115;BME280;10218;42.874;25.320;2023-03-04T07:53:34;97239.06;;;9.71;100.00
20115;BME280;10218;42.874;25.320;2023-03-04T07:56:02;97237.28;;;9.80;100.00
20115;BME280;10218;42.874;25.320;2023-03-04T07:58:29;97240.97;;;10.36;100.00
20115;BME280;10218;42.874;25.320;2023-03-04T08:00:57;97232.63;;;11.02;100.00
20115;BME280;10218;42.874;25.320;2023-03-04T08:03:25;97229.53;;;11.13;100.00
20115;BME280;10218;42.874;25.320;2023-03-04T08:05:52;97229.31;;;10.92;100.00
20115;BME280;10218;42.874;25.320;2023-03-04T08:08:19;97226.50;;;11.55;100.00
20115;BME280;10218;42.874;25.320;2023-03-04T08:10:46;97233.13;;;10.97;100.00
20115;BME280;10218;42.874;25.320;2023-03-04T08:13:13;97223.72;;;11.09;100.00
20115;BME280;10218;42.874;25.320;2023-03-04T08:15:41;97220.75;;;12.12;100.00
20115;BME280;10218;42.874;25.320;2023-03-04T08:18:08;97223.06;;;13.11;100.00
20115;BME280;10218;42.874;25.320;2023-03-04T08:20:35;97218.28;;;13.21;100.00
20115;BME280;10218;42.874;25.320;2023-03-04T08:23:02;97222.19;;;13.18;100.00
20115;BME280;10218;42.874;25.320;2023-03-04T08:25:30;97215.88;;;12.67;100.00
20115;BME280;10218;42.874;25.320;2023-03-04T08:27:58;97213.78;;;12.40;100.00
20115;BME280;10218;42.874;25.320;2023-03-04T08:30:25;97205.53;;;13.59;100.00
20115;BME280;10218;42.874;25.320;2023-03-04T08:32:52;97211.81;;;13.66;100.00
20115;BME280;10218;42.874;25.320;2023-03-04T08:35:19;97210.34;;;13.85;100.00
20115;BME280;10218;42.874;25.320;2023-03-04T08:37:46;97216.09;;;12.95;100.00
20115;BME280;10218;42.874;25.320;2023-03-04T08:40:13;97205.63;;;12.71;100.00
20115;BME280;10218;42.874;25.320;2023-03-04T08:42:41;97204.22;;;13.34;100.00
20115;BME280;10218;42.874;25.320;2023-03-04T08:45:08;97193.41;;;13.63;100.00
20115;BME280;10218;42.874;25.320;2023-03-04T08:47:36;97195.84;;;15.12;90.60
20115;BME280;10218;42.874;25.320;2023-03-04T08:50:05;97189.19;;;15.14;88.03
20115;BME280;10218;42.874;25.320;2023-03-04T08:52:32;97196.50;;;15.81;77.25
20115;BME280;10218;42.874;25.320;2023-03-04T08:54:59;97190.13;;;14.31;80.49
20115;BME280;10218;42.874;25.320;2023-03-04T08:57:26;97186.66;;;14.99;91.28
20115;BME280;10218;42.874;25.320;2023-03-04T08:59:53;97196.28;;;14.53;89.08
20115;BME280;10218;42.874;25.320;2023-03-04T09:02:20;97190.75;;;15.36;87.36
20115;BME280;10218;42.874;25.320;2023-03-04T09:04:47;97192.31;;;15.52;74.88
20115;BME280;10218;42.874;25.320;2023-03-04T09:07:14;97182.97;;;15.07;86.55
20115;BME280;10218;42.874;25.320;2023-03-04T09:09:42;97185.97;;;15.79;76.22
20115;BME280;10218;42.874;25.320;2023-03-04T09:12:09;97186.53;;;14.45;79.02
20115;BME280;10218;42.874;25.320;2023-03-04T09:14:36;97181.81;;;14.26;93.79
20115;BME280;10218;42.874;25.320;2023-03-04T09:17:04;97183.66;;;13.41;98.33
20115;BME280;10218;42.874;25.320;2023-03-04T09:19:31;97182.53;;;13.92;92.20
20115;BME280;10218;42.874;25.320;2023-03-04T09:21:58;97172.09;;;13.61;87.89
20115;BME280;10218;42.874;25.320;2023-03-04T09:24:25;97180.47;;;14.37;83.82
20115;BME280;10218;42.874;25.320;2023-03-04T09:26:53;97177.41;;;13.97;95.41
20115;BME280;10218;42.874;25.320;2023-03-04T09:29:21;97172.44;;;14.71;85.93
20115;BME280;10218;42.874;25.320;2023-03-04T09:31:48;97168.69;;;15.54;75.24
20115;BME280;10218;42.874;25.320;2023-03-04T09:34:15;97164.41;;;14.78;80.60
20115;BME280;10218;42.874;25.320;2023-03-04T09:36:42;97166.06;;;12.88;93.90
20115;BME280;10218;42.874;25.320;2023-03-04T09:39:10;97173.72;;;13.05;100.00
20115;BME280;10218;42.874;25.320;2023-03-04T09:41:43;97167.78;;;14.52;84.22
20115;BME280;10218;42.874;25.320;2023-03-04T09:46:51;97167.84;;;13.31;88.44
20115;BME280;10218;42.874;25.320;2023-03-04T09:49:19;97165.22;;;13.74;92.28
20115;BME280;10218;42.874;25.320;2023-03-04T09:54:40;97156.72;;;13.91;82.46
20115;BME280;10218;42.874;25.320;2023-03-04T10:01:19;97154.06;;;12.54;100.00
20115;BME280;10218;42.874;25.320;2023-03-04T10:03:50;97148.16;;;13.60;94.43
20115;BME280;10218;42.874;25.320;2023-03-04T10:06:21;97135.72;;;13.38;89.81
20115;BME280;10218;42.874;25.320;2023-03-04T10:16:52;97135.34;;;12.90;96.72
20115;BME280;10218;42.874;25.320;2023-03-04T10:22:29;97126.91;;;15.78;74.38
20115;BME280;10218;42.874;25.320;2023-03-04T10:27:43;97117.94;;;15.51;64.92
20115;BME280;10218;42.874;25.320;2023-03-04T10:30:38;97112.72;;;14.82;78.43
20115;BME280;10218;42.874;25.320;2023-03-04T10:33:19;97109.91;;;13.37;85.11
20115;BME280;10218;42.874;25.320;2023-03-04T10:35:55;97097.66;;;14.94;72.75
20115;BME280;10218;42.874;25.320;2023-03-04T10:38:29;97098.94;;;14.30;79.93
20115;BME280;10218;42.874;25.320;2023-03-04T10:40:58;97101.12;;;13.92;84.92
20115;BME280;10218;42.874;25.320;2023-03-04T10:43:25;97089.84;;;14.31;84.49
20115;BME280;10218;42.874;25.320;2023-03-04T10:45:55;97090.37;;;13.43;97.55
20115;BME280;10218;42.874;25.320;2023-03-04T10:48:28;97086.41;;;13.81;87.64
20115;BME280;10218;42.874;25.320;2023-03-04T10:53:40;97085.56;;;15.45;71.39
20115;BME280;10218;42.874;25.320;2023-03-04T10:56:30;97078.62;;;15.90;64.51
20115;BME280;10218;42.874;25.320;2023-03-04T11:04:56;97062.47;;;17.63;60.74
20115;BME280;10218;42.874;25.320;2023-03-04T11:07:38;97049.00;;;18.30;55.62
20115;BME280;10218;42.874;25.320;2023-03-04T11:10:28;97047.16;;;19.34;51.72
20115;BME280;10218;42.874;25.320;2023-03-04T11:13:02;97035.50;;;19.03;48.04
20115;BME280;10218;42.874;25.320;2023-03-04T11:15:57;97035.63;;;18.17;51.40
20115;BME280;10218;42.874;25.320;2023-03-04T11:18:30;97024.19;;;18.76;50.92
20115;BME280;10218;42.874;25.320;2023-03-04T11:21:00;97025.41;;;17.07;54.47
20115;BME280;10218;42.874;25.320;2023-03-04T11:26:54;97018.47;;;18.48;53.75
20115;BME280;10218;42.874;25.320;2023-03-04T11:29:25;97009.47;;;18.29;52.72
20115;BME280;10218;42.874;25.320;2023-03-04T11:31:59;97007.72;;;20.61;47.89
20115;BME280;10218;42.874;25.320;2023-03-04T11:37:11;96999.53;;;19.14;48.44
20115;BME280;10218;42.874;25.320;2023-03-04T11:40:03;97007.66;;;15.04;57.44
20115;BME280;10218;42.874;25.320;2023-03-04T11:42:44;96986.41;;;17.03;57.97
20115;BME280;10218;42.874;25.320;2023-03-04T11:57:04;96979.22;;;13.86;71.25
20115;BME280;10218;42.874;25.320;2023-03-04T12:08:23;96977.28;;;13.46;69.44
20115;BME280;10218;42.874;25.320;2023-03-04T12:13:47;96961.16;;;13.74;70.10
20115;BME280;10218;42.874;25.320;2023-03-04T12:16:52;96960.81;;;14.24;68.29
20115;BME280;10218;42.874;25.320;2023-03-04T12:20:34;96962.19;;;14.41;69.47
20115;BME280;10218;42.874;25.320;2023-03-04T12:25:41;96957.81;;;13.99;70.70
20115;BME280;10218;42.874;25.320;2023-03-04T12:45:18;96942.19;;;13.47;80.15
20115;BME280;10218;42.874;25.320;2023-03-04T12:50:46;96948.81;;;13.23;84.31
20115;BME280;10218;42.874;25.320;2023-03-04T12:53:29;96952.84;;;13.34;78.89
20115;BME280;10218;42.874;25.320;2023-03-04T12:56:00;96941.00;;;13.07;82.60
20115;BME280;10218;42.874;25.320;2023-03-04T12:58:31;96934.12;;;12.98;83.67
20115;BME280;10218;42.874;25.320;2023-03-04T13:01:10;96932.62;;;13.38;80.58
20115;BME280;10218;42.874;25.320;2023-03-04T13:03:56;96923.63;;;13.80;75.35
20115;BME280;10218;42.874;25.320;2023-03-04T13:09:35;96928.16;;;13.45;77.58
20115;BME280;10218;42.874;25.320;2023-03-04T13:17:54;96910.03;;;13.26;80.12
20115;BME280;10218;42.874;25.320;2023-03-04T13:20:37;96911.78;;;13.12;78.68
20115;BME280;10218;42.874;25.320;2023-03-04T13:28:19;96902.84;;;14.36;70.79
20115;BME280;10218;42.874;25.320;2023-03-04T13:35:49;96891.66;;;13.92;67.25
20115;BME280;10218;42.874;25.320;2023-03-04T13:43:56;96881.22;;;13.69;72.36
20115;BME280;10218;42.874;25.320;2023-03-04T13:51:24;96864.78;;;13.44;70.36
20115;BME280;10218;42.874;25.320;2023-03-04T13:56:34;96868.03;;;13.74;66.51
20115;BME280;10218;42.874;25.320;2023-03-04T14:06:48;96848.78;;;14.11;61.71
20115;BME280;10218;42.874;25.320;2023-03-04T14:09:25;96849.81;;;14.10;61.06
20115;BME280;10218;42.874;25.320;2023-03-04T14:11:55;96850.47;;;14.26;62.01
20115;BME280;10218;42.874;25.320;2023-03-04T14:14:42;96846.94;;;14.19;62.32
20115;BME280;10218;42.874;25.320;2023-03-04T14:17:22;96848.50;;;14.74;58.48
20115;BME280;10218;42.874;25.320;2023-03-04T14:19:51;96844.19;;;14.73;56.93
20115;BME280;10218;42.874;25.320;2023-03-04T14:22:29;96842.59;;;15.82;55.67
20115;BME280;10218;42.874;25.320;2023-03-04T14:27:33;96842.94;;;17.06;50.60
20115;BME280;10218;42.874;25.320;2023-03-04T14:30:08;96829.44;;;15.34;54.04
20115;BME280;10218;42.874;25.320;2023-03-04T14:32:51;96830.78;;;14.05;59.26
20115;BME280;10218;42.874;25.320;2023-03-04T14:35:24;96827.69;;;14.08;60.12
20115;BME280;10218;42.874;25.320;2023-03-04T14:38:06;96821.00;;;13.85;62.26
20115;BME280;10218;42.874;25.320;2023-03-04T14:40:39;96822.63;;;13.79;63.96
20115;BME280;10218;42.874;25.320;2023-03-04T14:43:17;96824.66;;;13.77;64.53
20115;BME280;10218;42.874;25.320;2023-03-04T14:45:51;96817.13;;;14.00;69.42
20115;BME280;10218;42.874;25.320;2023-03-04T14:48:23;96816.03;;;14.69;65.27
20115;BME280;10218;42.874;25.320;2023-03-04T14:50:54;96808.63;;;13.43;69.14
20115;BME280;10218;42.874;25.320;2023-03-04T14:53:24;96809.22;;;13.38;78.37
20115;BME280;10218;42.874;25.320;2023-03-04T14:56:04;96804.88;;;13.09;80.06
20115;BME280;10218;42.874;25.320;2023-03-04T14:58:53;96797.44;;;12.77;78.60
20115;BME280;10218;42.874;25.320;2023-03-04T15:01:22;96801.41;;;12.60;83.70
20115;BME280;10218;42.874;25.320;2023-03-04T15:03:55;96800.75;;;12.79;78.40
20115;BME280;10218;42.874;25.320;2023-03-04T15:06:25;96803.38;;;13.00;77.00
20115;BME280;10218;42.874;25.320;2023-03-04T15:08:58;96799.37;;;13.52;73.80
20115;BME280;10218;42.874;25.320;2023-03-04T15:11:48;96805.34;;;13.47;76.14
20115;BME280;10218;42.874;25.320;2023-03-04T15:14:44;96791.41;;;12.75;79.92
20115;BME280;10218;42.874;25.320;2023-03-04T15:17:35;96796.16;;;13.01;81.43
20115;BME280;10218;42.874;25.320;2023-03-04T15:22:34;96794.06;;;12.96;86.60
20115;BME280;10218;42.874;25.320;2023-03-04T15:25:02;96785.47;;;13.07;89.16